N468JL KBTL-KROA
Flight info
| Callsign | N468JL |
|---|---|
| Flight time | N/A |
| Altitude | 25000 |
| Route | NUPGE KLYNE BISCT CASTE |
| Aircraft | BE20/L-VGD/C |
Departure
| Time | N/A |
|---|---|
| Airport | Battle Creek Executive Airport at Kellogg Field (KBTL) |
Arrival
| Time | 2026-04-25 18:52 |
|---|---|
| Airport | Roanoke–Blacksburg Regional Airport (KROA) |
| Time | Latitude | Longitude | Altitude | Speed | Heading |
|---|---|---|---|---|---|
| 2026-04-25 17:54 | 40.20327 | -82.80161 | 24942 ft | 306 kts | 148° |
| 2026-04-25 17:54 | 40.18646 | -82.78444 | 24942 ft | 305 kts | 148° |
| 2026-04-25 17:54 | 40.16965 | -82.76730 | 24941 ft | 305 kts | 148° |
| 2026-04-25 17:54 | 40.15304 | -82.75037 | 24940 ft | 305 kts | 148° |
| 2026-04-25 17:55 | 40.13624 | -82.73325 | 24940 ft | 305 kts | 148° |
| 2026-04-25 17:55 | 40.11961 | -82.71632 | 24939 ft | 305 kts | 148° |
| 2026-04-25 17:55 | 40.10288 | -82.69928 | 24939 ft | 305 kts | 148° |
| 2026-04-25 17:55 | 40.08607 | -82.68219 | 24938 ft | 305 kts | 148° |
| 2026-04-25 17:56 | 40.06929 | -82.66514 | 24938 ft | 305 kts | 148° |
| 2026-04-25 17:56 | 40.05253 | -82.64811 | 24937 ft | 305 kts | 148° |
| 2026-04-25 17:56 | 40.03580 | -82.63113 | 24936 ft | 305 kts | 148° |
| 2026-04-25 17:56 | 40.01899 | -82.61408 | 24935 ft | 305 kts | 148° |
| 2026-04-25 17:57 | 40.00225 | -82.59712 | 24934 ft | 305 kts | 148° |
| 2026-04-25 17:57 | 39.98549 | -82.58013 | 24933 ft | 305 kts | 149° |
| 2026-04-25 17:57 | 39.96893 | -82.56334 | 24933 ft | 304 kts | 149° |
| 2026-04-25 17:57 | 39.95782 | -82.55210 | 24932 ft | 304 kts | 149° |
| 2026-04-25 17:58 | 39.93560 | -82.52963 | 24932 ft | 303 kts | 149° |
| 2026-04-25 17:58 | 39.91885 | -82.51271 | 24933 ft | 303 kts | 149° |
| 2026-04-25 17:58 | 39.90208 | -82.49578 | 24933 ft | 303 kts | 149° |
| 2026-04-25 17:58 | 39.88559 | -82.47914 | 24933 ft | 303 kts | 149° |
| 2026-04-25 17:59 | 39.86893 | -82.46234 | 24934 ft | 303 kts | 149° |
| 2026-04-25 17:59 | 39.85220 | -82.44549 | 24933 ft | 303 kts | 149° |
| 2026-04-25 17:59 | 39.83548 | -82.42865 | 24932 ft | 303 kts | 149° |
| 2026-04-25 17:59 | 39.81875 | -82.41181 | 24932 ft | 303 kts | 149° |
| 2026-04-25 18:00 | 39.80224 | -82.39520 | 24932 ft | 303 kts | 149° |
| 2026-04-25 18:00 | 39.78553 | -82.37840 | 24931 ft | 303 kts | 149° |
| 2026-04-25 18:00 | 39.76886 | -82.36165 | 24930 ft | 303 kts | 149° |
| 2026-04-25 18:00 | 39.75213 | -82.34486 | 24930 ft | 303 kts | 149° |
| 2026-04-25 18:01 | 39.73566 | -82.32832 | 24925 ft | 303 kts | 149° |
| 2026-04-25 18:01 | 39.71884 | -82.31146 | 24921 ft | 303 kts | 149° |
| 2026-04-25 18:01 | 39.70208 | -82.29465 | 24919 ft | 303 kts | 149° |
| 2026-04-25 18:01 | 39.68554 | -82.27809 | 24918 ft | 303 kts | 149° |
| 2026-04-25 18:02 | 39.66887 | -82.26140 | 24917 ft | 303 kts | 149° |
| 2026-04-25 18:02 | 39.65205 | -82.24458 | 24916 ft | 303 kts | 149° |
| 2026-04-25 18:02 | 39.63533 | -82.22786 | 24915 ft | 303 kts | 149° |
| 2026-04-25 18:02 | 39.61880 | -82.21134 | 24913 ft | 303 kts | 149° |
| 2026-04-25 18:03 | 39.60209 | -82.19465 | 24913 ft | 303 kts | 149° |
| 2026-04-25 18:03 | 39.58538 | -82.17798 | 24914 ft | 303 kts | 149° |
| 2026-04-25 18:03 | 39.56861 | -82.16126 | 24914 ft | 303 kts | 149° |
| 2026-04-25 18:03 | 39.55191 | -82.14461 | 24913 ft | 303 kts | 149° |
| 2026-04-25 18:04 | 39.53517 | -82.12794 | 24912 ft | 303 kts | 149° |
| 2026-04-25 18:04 | 39.51841 | -82.11126 | 24911 ft | 303 kts | 149° |
| 2026-04-25 18:04 | 39.50165 | -82.09458 | 24910 ft | 303 kts | 149° |
| 2026-04-25 18:04 | 39.48517 | -82.07820 | 24909 ft | 303 kts | 149° |
| 2026-04-25 18:05 | 39.46844 | -82.06158 | 24909 ft | 303 kts | 149° |
| 2026-04-25 18:05 | 39.45164 | -82.04491 | 24908 ft | 303 kts | 149° |
| 2026-04-25 18:05 | 39.43489 | -82.02828 | 24907 ft | 303 kts | 149° |
| 2026-04-25 18:05 | 39.41833 | -82.01186 | 24907 ft | 303 kts | 149° |
| 2026-04-25 18:06 | 39.40158 | -81.99525 | 24906 ft | 303 kts | 149° |
| 2026-04-25 18:06 | 39.38479 | -81.97862 | 24906 ft | 303 kts | 149° |
| 2026-04-25 18:06 | 39.36826 | -81.96226 | 24906 ft | 302 kts | 149° |
| 2026-04-25 18:06 | 39.35154 | -81.94572 | 24905 ft | 302 kts | 149° |
| 2026-04-25 18:07 | 39.33476 | -81.92912 | 24905 ft | 302 kts | 149° |
| 2026-04-25 18:07 | 39.31802 | -81.91259 | 24904 ft | 302 kts | 149° |
| 2026-04-25 18:07 | 39.30145 | -81.89623 | 24904 ft | 302 kts | 149° |
| 2026-04-25 18:07 | 39.28472 | -81.87972 | 24903 ft | 302 kts | 149° |
| 2026-04-25 18:08 | 39.26800 | -81.86323 | 24902 ft | 302 kts | 149° |
| 2026-04-25 18:08 | 39.25129 | -81.84675 | 24902 ft | 302 kts | 149° |
| 2026-04-25 18:08 | 39.23476 | -81.83047 | 24902 ft | 302 kts | 149° |
| 2026-04-25 18:08 | 39.21802 | -81.81400 | 24902 ft | 301 kts | 149° |
| 2026-04-25 18:09 | 39.20133 | -81.79758 | 24902 ft | 301 kts | 149° |
| 2026-04-25 18:09 | 39.18480 | -81.78133 | 24902 ft | 301 kts | 149° |
| 2026-04-25 18:09 | 39.16804 | -81.76485 | 24902 ft | 301 kts | 149° |
| 2026-04-25 18:09 | 39.16240 | -81.75932 | 24902 ft | 301 kts | 149° |
| 2026-04-25 18:10 | 39.13482 | -81.73225 | 24903 ft | 301 kts | 149° |
| 2026-04-25 18:10 | 39.11811 | -81.71586 | 24902 ft | 301 kts | 150° |
| 2026-04-25 18:10 | 39.10133 | -81.69942 | 24902 ft | 303 kts | 149° |
| 2026-04-25 18:10 | 39.08451 | -81.68295 | 24903 ft | 304 kts | 149° |
| 2026-04-25 18:11 | 39.06786 | -81.66666 | 24903 ft | 305 kts | 149° |
| 2026-04-25 18:11 | 39.05090 | -81.65007 | 24904 ft | 305 kts | 149° |
| 2026-04-25 18:11 | 39.03398 | -81.63352 | 24904 ft | 306 kts | 149° |
| 2026-04-25 18:11 | 39.01703 | -81.61696 | 24904 ft | 306 kts | 149° |
| 2026-04-25 18:12 | 39.00022 | -81.60054 | 24904 ft | 306 kts | 149° |
| 2026-04-25 18:12 | 38.98320 | -81.58393 | 24904 ft | 306 kts | 149° |
| 2026-04-25 18:12 | 38.96615 | -81.56729 | 24903 ft | 306 kts | 150° |
| 2026-04-25 18:12 | 38.94915 | -81.55071 | 24903 ft | 306 kts | 150° |
| 2026-04-25 18:13 | 38.93233 | -81.53433 | 24903 ft | 307 kts | 150° |
| 2026-04-25 18:13 | 38.91529 | -81.51773 | 24903 ft | 307 kts | 150° |
| 2026-04-25 18:13 | 38.89823 | -81.50113 | 24903 ft | 307 kts | 150° |
| 2026-04-25 18:14 | 38.86432 | -81.46816 | 24904 ft | 306 kts | 149° |
| 2026-04-25 18:14 | 38.84731 | -81.45165 | 24904 ft | 306 kts | 149° |
| 2026-04-25 18:14 | 38.83029 | -81.43513 | 24904 ft | 306 kts | 149° |
| 2026-04-25 18:14 | 38.81325 | -81.41860 | 24904 ft | 306 kts | 149° |
| 2026-04-25 18:15 | 38.79625 | -81.40211 | 24905 ft | 306 kts | 149° |
| 2026-04-25 18:15 | 38.77940 | -81.38578 | 24905 ft | 306 kts | 149° |
| 2026-04-25 18:15 | 38.76236 | -81.36929 | 24905 ft | 306 kts | 149° |
| 2026-04-25 18:15 | 38.74535 | -81.35283 | 24905 ft | 306 kts | 149° |
| 2026-04-25 18:16 | 38.72846 | -81.33649 | 24905 ft | 306 kts | 150° |
| 2026-04-25 18:16 | 38.71139 | -81.31999 | 24905 ft | 306 kts | 150° |
| 2026-04-25 18:16 | 38.67745 | -81.28722 | 24906 ft | 306 kts | 150° |
| 2026-04-25 18:17 | 38.66058 | -81.27095 | 24910 ft | 305 kts | 150° |
| 2026-04-25 18:17 | 38.64357 | -81.25455 | 24911 ft | 305 kts | 150° |
| 2026-04-25 18:17 | 38.62658 | -81.23817 | 24912 ft | 305 kts | 150° |
| 2026-04-25 18:17 | 38.60974 | -81.22195 | 24912 ft | 305 kts | 150° |
| 2026-04-25 18:18 | 38.59272 | -81.20557 | 24912 ft | 305 kts | 150° |
| 2026-04-25 18:18 | 38.57568 | -81.18919 | 24912 ft | 305 kts | 150° |
| 2026-04-25 18:18 | 38.55868 | -81.17285 | 24912 ft | 305 kts | 150° |
| 2026-04-25 18:18 | 38.54172 | -81.15655 | 24913 ft | 305 kts | 150° |
| 2026-04-25 18:19 | 38.52491 | -81.14041 | 24913 ft | 305 kts | 150° |
| 2026-04-25 18:19 | 38.50792 | -81.12411 | 24913 ft | 305 kts | 150° |
| 2026-04-25 18:19 | 38.49088 | -81.10777 | 24913 ft | 305 kts | 150° |
| 2026-04-25 18:19 | 38.47406 | -81.09166 | 24911 ft | 305 kts | 150° |
| 2026-04-25 18:20 | 38.45707 | -81.07538 | 24910 ft | 305 kts | 150° |
| 2026-04-25 18:20 | 38.44009 | -81.05912 | 24910 ft | 304 kts | 150° |
| 2026-04-25 18:20 | 38.42331 | -81.04306 | 24910 ft | 304 kts | 150° |
| 2026-04-25 18:20 | 38.40633 | -81.02682 | 24911 ft | 304 kts | 150° |
| 2026-04-25 18:21 | 38.38931 | -81.01056 | 24911 ft | 304 kts | 150° |
| 2026-04-25 18:21 | 38.37237 | -80.99438 | 24914 ft | 304 kts | 150° |
| 2026-04-25 18:21 | 38.35545 | -80.97823 | 24921 ft | 304 kts | 150° |
| 2026-04-25 18:21 | 38.33873 | -80.96227 | 24924 ft | 303 kts | 150° |
| 2026-04-25 18:22 | 38.32181 | -80.94614 | 24926 ft | 303 kts | 150° |
| 2026-04-25 18:22 | 38.31613 | -80.94072 | 24926 ft | 303 kts | 150° |
| 2026-04-25 18:22 | 38.28839 | -80.91426 | 24922 ft | 294 kts | 150° |
| 2026-04-25 18:22 | 38.27231 | -80.89889 | 24797 ft | 288 kts | 150° |
| 2026-04-25 18:23 | 38.25634 | -80.88367 | 24442 ft | 287 kts | 150° |
| 2026-04-25 18:23 | 38.24018 | -80.86835 | 23989 ft | 289 kts | 150° |
| 2026-04-25 18:23 | 38.22392 | -80.85300 | 23535 ft | 291 kts | 150° |
| 2026-04-25 18:23 | 38.20787 | -80.83785 | 23188 ft | 288 kts | 150° |
| 2026-04-25 18:24 | 38.19190 | -80.82274 | 22897 ft | 283 kts | 150° |
| 2026-04-25 18:24 | 38.17612 | -80.80778 | 22617 ft | 280 kts | 151° |
| 2026-04-25 18:24 | 38.16079 | -80.79325 | 22327 ft | 277 kts | 151° |
| 2026-04-25 18:24 | 38.14531 | -80.77859 | 22026 ft | 275 kts | 151° |
| 2026-04-25 18:25 | 38.13013 | -80.76423 | 21728 ft | 273 kts | 151° |
| 2026-04-25 18:25 | 38.11490 | -80.74984 | 21427 ft | 272 kts | 151° |
| 2026-04-25 18:25 | 38.09973 | -80.73551 | 21126 ft | 271 kts | 151° |
| 2026-04-25 18:25 | 38.08464 | -80.72129 | 20818 ft | 270 kts | 150° |
| 2026-04-25 18:26 | 38.06932 | -80.70694 | 20299 ft | 279 kts | 149° |
| 2026-04-25 18:26 | 38.05349 | -80.69207 | 19861 ft | 283 kts | 149° |
| 2026-04-25 18:26 | 38.03765 | -80.67732 | 19564 ft | 280 kts | 151° |
| 2026-04-25 18:26 | 38.02141 | -80.66381 | 19285 ft | 276 kts | 154° |
| 2026-04-25 18:27 | 38.00527 | -80.65130 | 19012 ft | 274 kts | 155° |
| 2026-04-25 18:27 | 37.98894 | -80.63900 | 18736 ft | 272 kts | 156° |
| 2026-04-25 18:27 | 37.97261 | -80.62682 | 18460 ft | 270 kts | 156° |
| 2026-04-25 18:27 | 37.95655 | -80.61486 | 18187 ft | 269 kts | 156° |
| 2026-04-25 18:28 | 37.94034 | -80.60276 | 17910 ft | 268 kts | 156° |
| 2026-04-25 18:28 | 37.92426 | -80.59068 | 17634 ft | 268 kts | 155° |
| 2026-04-25 18:28 | 37.90837 | -80.57870 | 17360 ft | 267 kts | 155° |
| 2026-04-25 18:29 | 37.87663 | -80.55476 | 16812 ft | 266 kts | 155° |
| 2026-04-25 18:29 | 37.86081 | -80.54250 | 16534 ft | 268 kts | 151° |
| 2026-04-25 18:30 | 37.82653 | -80.48481 | 15714 ft | 274 kts | 134° |
| 2026-04-25 18:30 | 37.81438 | -80.46627 | 15455 ft | 272 kts | 136° |
| 2026-04-25 18:30 | 37.80217 | -80.44844 | 15206 ft | 270 kts | 138° |
| 2026-04-25 18:30 | 37.78927 | -80.43122 | 14957 ft | 268 kts | 140° |
| 2026-04-25 18:31 | 37.77611 | -80.41459 | 14783 ft | 264 kts | 139° |
| 2026-04-25 18:31 | 37.76315 | -80.39839 | 14638 ft | 260 kts | 139° |
| 2026-04-25 18:31 | 37.75032 | -80.38234 | 14474 ft | 257 kts | 139° |
| 2026-04-25 18:31 | 37.73778 | -80.36661 | 14300 ft | 256 kts | 139° |
| 2026-04-25 18:32 | 37.72513 | -80.35067 | 14124 ft | 255 kts | 139° |
| 2026-04-25 18:32 | 37.71274 | -80.33490 | 13949 ft | 254 kts | 139° |
| 2026-04-25 18:32 | 37.70028 | -80.31886 | 13772 ft | 254 kts | 138° |
| 2026-04-25 18:32 | 37.68781 | -80.30310 | 13543 ft | 256 kts | 139° |
| 2026-04-25 18:33 | 37.67500 | -80.28751 | 13299 ft | 254 kts | 143° |
| 2026-04-25 18:33 | 37.66220 | -80.27192 | 13113 ft | 255 kts | 139° |
| 2026-04-25 18:33 | 37.64996 | -80.25602 | 12893 ft | 253 kts | 139° |
| 2026-04-25 18:33 | 37.63769 | -80.24035 | 12549 ft | 251 kts | 139° |
| 2026-04-25 18:34 | 37.62951 | -80.22990 | 12284 ft | 251 kts | 138° |
| 2026-04-25 18:34 | 37.61724 | -80.21438 | 11911 ft | 250 kts | 140° |
| 2026-04-25 18:34 | 37.60493 | -80.19874 | 11493 ft | 251 kts | 139° |
| 2026-04-25 18:34 | 37.59259 | -80.18321 | 11092 ft | 249 kts | 138° |
| 2026-04-25 18:35 | 37.58066 | -80.16777 | 10699 ft | 248 kts | 137° |
| 2026-04-25 18:35 | 37.56855 | -80.15206 | 10331 ft | 248 kts | 139° |
| 2026-04-25 18:35 | 37.55693 | -80.13654 | 10172 ft | 237 kts | 139° |
| 2026-04-25 18:35 | 37.54587 | -80.12176 | 9937 ft | 233 kts | 137° |
| 2026-04-25 18:36 | 37.53482 | -80.10686 | 9638 ft | 232 kts | 139° |
| 2026-04-25 18:36 | 37.52396 | -80.09184 | 9332 ft | 231 kts | 137° |
| 2026-04-25 18:36 | 37.51279 | -80.07739 | 8950 ft | 231 kts | 139° |
| 2026-04-25 18:36 | 37.50125 | -80.06323 | 8665 ft | 229 kts | 141° |
| 2026-04-25 18:37 | 37.48982 | -80.04959 | 8413 ft | 227 kts | 144° |
| 2026-04-25 18:37 | 37.47817 | -80.03631 | 8129 ft | 227 kts | 141° |
| 2026-04-25 18:37 | 37.46700 | -80.02257 | 7851 ft | 227 kts | 141° |
| 2026-04-25 18:37 | 37.45582 | -80.00834 | 7634 ft | 228 kts | 139° |
| 2026-04-25 18:38 | 37.44465 | -79.99407 | 7504 ft | 227 kts | 139° |
| 2026-04-25 18:38 | 37.43402 | -79.97976 | 7380 ft | 225 kts | 137° |
| 2026-04-25 18:38 | 37.42289 | -79.96581 | 7204 ft | 225 kts | 139° |
| 2026-04-25 18:38 | 37.41166 | -79.95170 | 7054 ft | 228 kts | 140° |
| 2026-04-25 18:39 | 37.40028 | -79.93798 | 7034 ft | 228 kts | 139° |
| 2026-04-25 18:39 | 37.38926 | -79.92401 | 7040 ft | 226 kts | 138° |
| 2026-04-25 18:39 | 37.37842 | -79.91015 | 6929 ft | 220 kts | 136° |
| 2026-04-25 18:39 | 37.36778 | -79.89613 | 6616 ft | 222 kts | 138° |
| 2026-04-25 18:40 | 37.35677 | -79.88237 | 6321 ft | 223 kts | 139° |
| 2026-04-25 18:40 | 37.34589 | -79.86894 | 6116 ft | 219 kts | 138° |
| 2026-04-25 18:40 | 37.33526 | -79.85561 | 6034 ft | 212 kts | 139° |
| 2026-04-25 18:40 | 37.32500 | -79.84274 | 6008 ft | 204 kts | 139° |
| 2026-04-25 18:41 | 37.31476 | -79.82994 | 6006 ft | 210 kts | 138° |
| 2026-04-25 18:41 | 37.30440 | -79.81674 | 6023 ft | 219 kts | 138° |
| 2026-04-25 18:41 | 37.29339 | -79.80308 | 6018 ft | 226 kts | 138° |
| 2026-04-25 18:41 | 37.28221 | -79.78894 | 6016 ft | 230 kts | 138° |
| 2026-04-25 18:42 | 37.27087 | -79.77459 | 6013 ft | 233 kts | 138° |
| 2026-04-25 18:42 | 37.26328 | -79.76498 | 6013 ft | 234 kts | 138° |
| 2026-04-25 18:42 | 37.24783 | -79.74546 | 6011 ft | 236 kts | 138° |
| 2026-04-25 18:42 | 37.23633 | -79.73098 | 6005 ft | 237 kts | 138° |
| 2026-04-25 18:43 | 37.22457 | -79.71620 | 6001 ft | 238 kts | 138° |
| 2026-04-25 18:43 | 37.21296 | -79.70163 | 6000 ft | 238 kts | 138° |
| 2026-04-25 18:43 | 37.20119 | -79.68681 | 5998 ft | 238 kts | 138° |
| 2026-04-25 18:43 | 37.18947 | -79.67243 | 5993 ft | 237 kts | 142° |
| 2026-04-25 18:44 | 37.17518 | -79.66329 | 5978 ft | 223 kts | 171° |
| 2026-04-25 18:44 | 37.16046 | -79.66390 | 5904 ft | 206 kts | 200° |
| 2026-04-25 18:44 | 37.14891 | -79.67312 | 5785 ft | 196 kts | 227° |
| 2026-04-25 18:44 | 37.14074 | -79.68657 | 5657 ft | 192 kts | 236° |
| 2026-04-25 18:45 | 37.13276 | -79.70001 | 5507 ft | 191 kts | 233° |
| 2026-04-25 18:45 | 37.12528 | -79.71347 | 5318 ft | 190 kts | 245° |
| 2026-04-25 18:45 | 37.12204 | -79.72955 | 5104 ft | 191 kts | 261° |
| 2026-04-25 18:45 | 37.12179 | -79.74616 | 4884 ft | 193 kts | 271° |
| 2026-04-25 18:46 | 37.12296 | -79.76306 | 4659 ft | 194 kts | 274° |
| 2026-04-25 18:46 | 37.12451 | -79.77999 | 4434 ft | 195 kts | 275° |
| 2026-04-25 18:46 | 37.12611 | -79.79707 | 4139 ft | 201 kts | 275° |
| 2026-04-25 18:46 | 37.12791 | -79.81439 | 3946 ft | 200 kts | 280° |
| 2026-04-25 18:47 | 37.13415 | -79.82955 | 3840 ft | 198 kts | 308° |
| 2026-04-25 18:47 | 37.14445 | -79.84072 | 3809 ft | 193 kts | 323° |
| 2026-04-25 18:47 | 37.15592 | -79.84912 | 3801 ft | 188 kts | 330° |
| 2026-04-25 18:47 | 37.16759 | -79.85627 | 3797 ft | 184 kts | 332° |
| 2026-04-25 18:48 | 37.17897 | -79.86324 | 3816 ft | 182 kts | 331° |
| 2026-04-25 18:48 | 37.18959 | -79.87043 | 3823 ft | 167 kts | 328° |
| 2026-04-25 18:48 | 37.19936 | -79.87789 | 3793 ft | 160 kts | 325° |
| 2026-04-25 18:48 | 37.20850 | -79.88556 | 3750 ft | 161 kts | 323° |
| 2026-04-25 18:49 | 37.21788 | -79.89363 | 3592 ft | 165 kts | 323° |
| 2026-04-25 18:49 | 37.22747 | -79.90170 | 3355 ft | 167 kts | 324° |
| 2026-04-25 18:49 | 37.23723 | -79.90957 | 3078 ft | 171 kts | 325° |
| 2026-04-25 18:49 | 37.24734 | -79.91747 | 2802 ft | 166 kts | 326° |
| 2026-04-25 18:50 | 37.25689 | -79.92468 | 2523 ft | 153 kts | 326° |
| 2026-04-25 18:50 | 37.26565 | -79.93120 | 2289 ft | 138 kts | 325° |
| 2026-04-25 18:50 | 37.27336 | -79.93711 | 2102 ft | 125 kts | 323° |
| 2026-04-25 18:50 | 37.28049 | -79.94298 | 1954 ft | 122 kts | 323° |
| 2026-04-25 18:51 | 37.28762 | -79.94878 | 1824 ft | 122 kts | 324° |
| 2026-04-25 18:51 | 37.29237 | -79.95253 | 1728 ft | 122 kts | 324° |
| 2026-04-25 18:51 | 37.30192 | -79.95997 | 1549 ft | 121 kts | 323° |
| 2026-04-25 18:51 | 37.30905 | -79.96555 | 1396 ft | 119 kts | 324° |
| 2026-04-25 18:52 | 37.31600 | -79.97094 | 1219 ft | 114 kts | 324° |
| 2026-04-25 18:52 | 37.32218 | -79.97583 | 1180 ft | 98 kts | 323° |
| 2026-04-25 18:52 | 37.32585 | -79.97878 | 1179 ft | 36 kts | 329° |
| 2026-04-25 18:52 | 37.32777 | -79.98020 | 1179 ft | 18 kts | 328° |
| 2026-04-25 18:53 | 37.32848 | -79.98000 | 1179 ft | 9 kts | 75° |
| 2026-04-25 18:53 | 37.32835 | -79.97954 | 1179 ft | 4 kts | 135° |
| 2026-04-25 18:53 | 37.32792 | -79.97914 | 1179 ft | 13 kts | 145° |
| 2026-04-25 18:53 | 37.32663 | -79.97811 | 1179 ft | 26 kts | 150° |
| 2026-04-25 18:54 | 37.32415 | -79.97613 | 1179 ft | 19 kts | 147° |
| 2026-04-25 18:54 | 37.32293 | -79.97514 | 1179 ft | 16 kts | 137° |
| 2026-04-25 18:54 | 37.32317 | -79.97428 | 1179 ft | 16 kts | 56° |
| 2026-04-25 18:55 | 37.32389 | -79.97254 | 1179 ft | 23 kts | 69° |
| 2026-04-25 18:55 | 37.32448 | -79.97195 | 1179 ft | 7 kts | 315° |
| 2026-04-25 18:55 | 37.32449 | -79.97199 | 1179 ft | 0 kts | 267° |